Brandon Bordelon — WDI431 — position and weather

sailwx.info

Track history (hours):
 
Tides and Currents Weather Stations Pressure Air Temp Water Temp Dewpoint Dewpoint Depression Visibility Wind Speed Wind Dir Waves Ship Positions

Brandon Bordelon

Last reported at 2018-Feb-19 12:00 UTC. Time now 2018-Feb-19 12:25 UTC.
Position N 29°33' W 090°42'.

Length 87 m.

MMSI: 367697440.

Date/timePositionNaut miles runAvg speedWind from/ knotsBaromVisibWave heightAir tempDewpointWater temp
2018-Feb-19 12:00N 29°33' W 090°42'0 0.0
2018-Feb-19 11:28N 29°33' W 090°42'0 0.0
2018-Feb-19 11:00N 29°33' W 090°42'0 0.0
2018-Feb-19 10:29N 29°33' W 090°42'0 0.0
2018-Feb-19 09:56N 29°33' W 090°42'0 0.0
2018-Feb-19 09:29N 29°33' W 090°42'0 0.0
2018-Feb-19 09:00N 29°33' W 090°42'0 0.0
2018-Feb-19 08:30N 29°33' W 090°42'0 0.0
2018-Feb-19 07:59N 29°33' W 090°42'0 0.0
2018-Feb-19 07:30N 29°33' W 090°42'0 0.0
2018-Feb-19 06:58N 29°33' W 090°42'0 0.0
2018-Feb-19 06:27N 29°33' W 090°42'0 0.0
2018-Feb-19 05:59N 29°33' W 090°42'0 0.0
2018-Feb-19 05:30N 29°33' W 090°42'0 0.0
2018-Feb-19 04:56N 29°33' W 090°42'0 0.0
2018-Feb-19 04:27N 29°33' W 090°42'0 0.0
2018-Feb-19 03:59N 29°33' W 090°42'0 0.0
2018-Feb-19 03:30N 29°33' W 090°42'0 0.0
2018-Feb-19 03:00N 29°33' W 090°42'0 0.1
2018-Feb-19 02:30N 29°33' W 090°42'0 0.1
2018-Feb-19 01:58N 29°33' W 090°42'0 0.0
2018-Feb-19 01:30N 29°33' W 090°42'0 0.0
2018-Feb-19 01:00N 29°33' W 090°42'0 0.0
2018-Feb-19 00:26N 29°33' W 090°42'0 0.0
2018-Feb-19 00:00N 29°33' W 090°42'0 0.0
2018-Feb-18 23:29N 29°33' W 090°42'0 0.0
2018-Feb-18 23:00N 29°33' W 090°42'0 0.0
2018-Feb-18 22:30N 29°33' W 090°42'0 0.0
2018-Feb-18 21:59N 29°33' W 090°42'0 0.0
2018-Feb-18 21:29N 29°33' W 090°42'0 0.0
2018-Feb-18 20:59N 29°33' W 090°42'0 0.0
2018-Feb-18 20:29N 29°33' W 090°42'0 0.7
2018-Feb-18 20:00N 29°32' W 090°42'3 5.5
2018-Feb-18 19:30N 29°30' W 090°43'3 5.5
2018-Feb-18 19:00N 29°27' W 090°43'2 0.1
2018-Feb-17 17:14N 29°25' W 090°43'1 5.1
2018-Feb-17 17:00N 29°26' W 090°43'3 5.1
2018-Feb-17 16:30N 29°29' W 090°43'3 5.1
2018-Feb-17 16:00N 29°31' W 090°42'2 3.5
2018-Feb-17 15:30N 29°33' W 090°42'0 0.0
2018-Feb-17 15:00N 29°33' W 090°42'0 0.0
2018-Feb-17 14:30N 29°33' W 090°42'0 0.0
2018-Feb-17 14:00N 29°33' W 090°42'0 0.0
2018-Feb-17 13:27N 29°33' W 090°42'0 0.5
2018-Feb-17 13:00N 29°33' W 090°42'2 4.5
2018-Feb-17 12:30N 29°30' W 090°43'3 5.3
2018-Feb-17 12:00N 29°28' W 090°43'3 5.0
2018-Feb-17 11:29N 29°25' W 090°43'2 4.3
2018-Feb-17 11:00N 29°23' W 090°44'1 1.2
2018-Feb-17 10:24N 29°23' W 090°44'  
2018-Feb-14 22:47N 29°18' W 090°43'7 5.8
2018-Feb-14 21:31N 29°25' W 090°43'0 6.2
2018-Feb-14 21:29N 29°25' W 090°43'3 6.1
2018-Feb-14 20:59N 29°28' W 090°43'3 5.9
2018-Feb-14 20:30N 29°31' W 090°43'2 3.5
2018-Feb-14 19:59N 29°33' W 090°42'0 0.1
2018-Feb-14 19:30N 29°33' W 090°42'0 0.0
2018-Feb-14 18:59N 29°33' W 090°42'0 0.0
2018-Feb-14 18:30N 29°33' W 090°42'0 0.0
2018-Feb-14 18:00N 29°33' W 090°42'0 0.0
2018-Feb-14 17:29N 29°33' W 090°42'0 0.0
2018-Feb-14 17:00N 29°33' W 090°42'0 0.1
2018-Feb-14 16:30N 29°33' W 090°42'0 0.1
2018-Feb-14 16:00N 29°33' W 090°42'0 0.0
2018-Feb-14 15:29N 29°33' W 090°42'0 0.0
2018-Feb-14 15:01N 29°33' W 090°42'0 0.1
2018-Feb-14 14:30N 29°33' W 090°42'0 0.1
2018-Feb-14 13:55N 29°33' W 090°42'0 0.0
2018-Feb-14 13:30N 29°33' W 090°42'0 0.0
2018-Feb-14 13:00N 29°33' W 090°42'0 0.0
2018-Feb-14 12:30N 29°33' W 090°42'0 0.0
2018-Feb-14 11:59N 29°33' W 090°42'0 0.0
2018-Feb-14 11:30N 29°33' W 090°42'0 0.0
2018-Feb-14 11:00N 29°33' W 090°42'0 0.0
2018-Feb-14 10:30N 29°33' W 090°42'0 0.0
2018-Feb-14 10:00N 29°33' W 090°42'0 0.0
2018-Feb-14 09:30N 29°33' W 090°42'0 0.0
2018-Feb-14 08:55N 29°33' W 090°42'0 0.0
2018-Feb-14 08:30N 29°33' W 090°42'0 0.0
2018-Feb-14 08:00N 29°33' W 090°42'0 0.0
2018-Feb-14 07:30N 29°33' W 090°42'0 0.0
2018-Feb-14 07:00N 29°33' W 090°42'0 0.0
2018-Feb-14 06:30N 29°33' W 090°42'0 0.0
2018-Feb-14 05:56N 29°33' W 090°42'0 0.0
2018-Feb-14 05:31N 29°33' W 090°42'0 0.0
2018-Feb-14 05:00N 29°33' W 090°42'0 0.0
2018-Feb-14 04:30N 29°33' W 090°42'0 0.0
2018-Feb-14 04:00N 29°33' W 090°42'0 0.0
2018-Feb-14 03:30N 29°33' W 090°42'0 0.0
2018-Feb-14 03:00N 29°33' W 090°42'0 0.0
2018-Feb-14 02:30N 29°33' W 090°42'0 0.0
2018-Feb-14 02:00N 29°33' W 090°42'0 0.0
2018-Feb-14 01:27N 29°33' W 090°42'0 0.0
2018-Feb-14 01:00N 29°33' W 090°42'0 0.0
2018-Feb-14 00:30N 29°33' W 090°42'0 0.0
2018-Feb-13 23:57N 29°33' W 090°42'0 0.0
2018-Feb-13 23:30N 29°33' W 090°42'0 0.0
2018-Feb-13 22:59N 29°33' W 090°42'0 0.0
2018-Feb-13 22:30N 29°33' W 090°42'0 0.0
2018-Feb-13 22:00N 29°33' W 090°42'0 0.0
2018-Feb-13 21:31N 29°33' W 090°42'0 0.0
2018-Feb-13 21:00N 29°33' W 090°42'0 0.0
2018-Feb-13 20:30N 29°33' W 090°42'0 0.0
2018-Feb-13 19:59N 29°33' W 090°42'0 0.0
2018-Feb-13 19:30N 29°33' W 090°42'0 0.0
2018-Feb-13 18:58N 29°33' W 090°42'0 0.0
2018-Feb-13 18:30N 29°33' W 090°42'0 0.0
2018-Feb-13 17:59N 29°33' W 090°42'0 0.0
2018-Feb-13 17:28N 29°33' W 090°42'0 0.0
2018-Feb-13 16:59N 29°33' W 090°42'0 0.0
2018-Feb-13 16:30N 29°33' W 090°42'0 0.0
2018-Feb-13 16:01N 29°33' W 090°42'0 0.0
2018-Feb-13 15:29N 29°33' W 090°42'0 0.0
2018-Feb-13 15:00N 29°33' W 090°42'0 0.0
2018-Feb-13 14:29N 29°33' W 090°42'0 0.0
2018-Feb-13 14:01N 29°33' W 090°42'0 0.0
2018-Feb-13 13:25N 29°33' W 090°42'0 0.0
2018-Feb-13 13:00N 29°33' W 090°42'0 0.0
2018-Feb-13 12:24N 29°33' W 090°42'0 0.0
2018-Feb-13 11:59N 29°33' W 090°42'0 0.0
2018-Feb-13 11:30N 29°33' W 090°42'0 0.0
2018-Feb-13 11:00N 29°33' W 090°42'0 0.0
2018-Feb-13 10:30N 29°33' W 090°42'0 0.0
2018-Feb-13 10:00N 29°33' W 090°42'0 0.0
2018-Feb-13 09:30N 29°33' W 090°42'0 0.0
2018-Feb-13 09:00N 29°33' W 090°42'0 0.0
2018-Feb-13 08:30N 29°33' W 090°42'0 0.0
2018-Feb-13 08:00N 29°33' W 090°42'0 0.0
2018-Feb-13 07:29N 29°33' W 090°42'0 0.0
2018-Feb-13 07:00N 29°33' W 090°42'0 0.0
2018-Feb-13 06:30N 29°33' W 090°42'0 0.0
2018-Feb-13 06:00N 29°33' W 090°42'0 0.0
2018-Feb-13 05:30N 29°33' W 090°42'0 0.0
2018-Feb-13 04:59N 29°33' W 090°42'0 0.0
2018-Feb-13 04:30N 29°33' W 090°42'0 0.0
2018-Feb-13 04:00N 29°33' W 090°42'0 0.0
2018-Feb-13 03:30N 29°33' W 090°42'0 0.0
2018-Feb-13 02:59N 29°33' W 090°42'0 0.0
2018-Feb-13 02:30N 29°33' W 090°42'0 0.0
2018-Feb-13 02:00N 29°33' W 090°42'0 0.0
2018-Feb-13 01:27N 29°33' W 090°42'0 0.0
2018-Feb-13 01:00N 29°33' W 090°42'0 0.0
2018-Feb-13 00:28N 29°33' W 090°42'0 0.0
2018-Feb-12 23:59N 29°33' W 090°42'0 0.0
2018-Feb-12 23:28N 29°33' W 090°42'0 0.0
2018-Feb-12 23:01N 29°33' W 090°42'0 0.0
2018-Feb-12 22:30N 29°33' W 090°42'0 0.0
2018-Feb-12 22:00N 29°33' W 090°42'0 0.0
2018-Feb-12 21:30N 29°33' W 090°42'0 0.0
2018-Feb-12 20:59N 29°33' W 090°42'0 0.0
2018-Feb-12 20:26N 29°33' W 090°42'0 0.0
2018-Feb-12 20:00N 29°33' W 090°42'0 0.0
2018-Feb-12 19:30N 29°33' W 090°42'0 0.0
2018-Feb-12 19:00N 29°33' W 090°42'0 0.0
2018-Feb-12 18:26N 29°33' W 090°42'0 0.0
2018-Feb-12 18:00N 29°33' W 090°42'0 0.0
2018-Feb-12 17:30N 29°33' W 090°42'0 0.0
2018-Feb-12 16:57N 29°33' W 090°42'1 1.1
2018-Feb-12 16:30N 29°32' W 090°42'3 5.1
2018-Feb-12 16:00N 29°30' W 090°43'2 4.9
2018-Feb-12 15:30N 29°27' W 090°43'2 4.5
2018-Feb-12 15:00N 29°25' W 090°43'2 4.6
2018-Feb-12 14:30N 29°23' W 090°44'  
Track history (hours):
 
Tides and Currents Weather Stations Pressure Air Temp Water Temp Dewpoint Dewpoint Depression Visibility Wind Speed Wind Dir Waves Ship Positions

Brandon Bordelon

Last reported at 2018-Feb-19 12:00 UTC. Time now 2018-Feb-19 12:25 UTC.
Position N 29°33' W 090°42'.

Length 87 m.

MMSI: 367697440.

Date/timePositionNaut miles runAvg speedWind from/ knotsBaromVisibWave heightAir tempDewpointWater temp
2018-Feb-19 12:00N 29°33' W 090°42'0 0.0
2018-Feb-19 11:28N 29°33' W 090°42'0 0.0
2018-Feb-19 11:00N 29°33' W 090°42'0 0.0
2018-Feb-19 10:29N 29°33' W 090°42'0 0.0
2018-Feb-19 09:56N 29°33' W 090°42'0 0.0
2018-Feb-19 09:29N 29°33' W 090°42'0 0.0
2018-Feb-19 09:00N 29°33' W 090°42'0 0.0
2018-Feb-19 08:30N 29°33' W 090°42'0 0.0
2018-Feb-19 07:59N 29°33' W 090°42'0 0.0
2018-Feb-19 07:30N 29°33' W 090°42'0 0.0
2018-Feb-19 06:58N 29°33' W 090°42'0 0.0
2018-Feb-19 06:27N 29°33' W 090°42'0 0.0
2018-Feb-19 05:59N 29°33' W 090°42'0 0.0
2018-Feb-19 05:30N 29°33' W 090°42'0 0.0
2018-Feb-19 04:56N 29°33' W 090°42'0 0.0
2018-Feb-19 04:27N 29°33' W 090°42'0 0.0
2018-Feb-19 03:59N 29°33' W 090°42'0 0.0
2018-Feb-19 03:30N 29°33' W 090°42'0 0.0
2018-Feb-19 03:00N 29°33' W 090°42'0 0.1
2018-Feb-19 02:30N 29°33' W 090°42'0 0.1
2018-Feb-19 01:58N 29°33' W 090°42'0 0.0
2018-Feb-19 01:30N 29°33' W 090°42'0 0.0
2018-Feb-19 01:00N 29°33' W 090°42'0 0.0
2018-Feb-19 00:26N 29°33' W 090°42'0 0.0
2018-Feb-19 00:00N 29°33' W 090°42'0 0.0
2018-Feb-18 23:29N 29°33' W 090°42'0 0.0
2018-Feb-18 23:00N 29°33' W 090°42'0 0.0
2018-Feb-18 22:30N 29°33' W 090°42'0 0.0
2018-Feb-18 21:59N 29°33' W 090°42'0 0.0
2018-Feb-18 21:29N 29°33' W 090°42'0 0.0
2018-Feb-18 20:59N 29°33' W 090°42'0 0.0
2018-Feb-18 20:29N 29°33' W 090°42'0 0.7
2018-Feb-18 20:00N 29°32' W 090°42'3 5.5
2018-Feb-18 19:30N 29°30' W 090°43'3 5.5
2018-Feb-18 19:00N 29°27' W 090°43'2 0.1
2018-Feb-17 17:14N 29°25' W 090°43'1 5.1
2018-Feb-17 17:00N 29°26' W 090°43'3 5.1
2018-Feb-17 16:30N 29°29' W 090°43'3 5.1
2018-Feb-17 16:00N 29°31' W 090°42'2 3.5
2018-Feb-17 15:30N 29°33' W 090°42'0 0.0
2018-Feb-17 15:00N 29°33' W 090°42'0 0.0
2018-Feb-17 14:30N 29°33' W 090°42'0 0.0
2018-Feb-17 14:00N 29°33' W 090°42'0 0.0
2018-Feb-17 13:27N 29°33' W 090°42'0 0.5
2018-Feb-17 13:00N 29°33' W 090°42'2 4.5
2018-Feb-17 12:30N 29°30' W 090°43'3 5.3
2018-Feb-17 12:00N 29°28' W 090°43'3 5.0
2018-Feb-17 11:29N 29°25' W 090°43'2 4.3
2018-Feb-17 11:00N 29°23' W 090°44'1 1.2
2018-Feb-17 10:24N 29°23' W 090°44'  
2018-Feb-14 22:47N 29°18' W 090°43'7 5.8
2018-Feb-14 21:31N 29°25' W 090°43'0 6.2
2018-Feb-14 21:29N 29°25' W 090°43'3 6.1
2018-Feb-14 20:59N 29°28' W 090°43'3 5.9
2018-Feb-14 20:30N 29°31' W 090°43'2 3.5
2018-Feb-14 19:59N 29°33' W 090°42'0 0.1
2018-Feb-14 19:30N 29°33' W 090°42'0 0.0
2018-Feb-14 18:59N 29°33' W 090°42'0 0.0
2018-Feb-14 18:30N 29°33' W 090°42'0 0.0
2018-Feb-14 18:00N 29°33' W 090°42'0 0.0
2018-Feb-14 17:29N 29°33' W 090°42'0 0.0
2018-Feb-14 17:00N 29°33' W 090°42'0 0.1
2018-Feb-14 16:30N 29°33' W 090°42'0 0.1
2018-Feb-14 16:00N 29°33' W 090°42'0 0.0
2018-Feb-14 15:29N 29°33' W 090°42'0 0.0
2018-Feb-14 15:01N 29°33' W 090°42'0 0.1
2018-Feb-14 14:30N 29°33' W 090°42'0 0.1
2018-Feb-14 13:55N 29°33' W 090°42'0 0.0
2018-Feb-14 13:30N 29°33' W 090°42'0 0.0
2018-Feb-14 13:00N 29°33' W 090°42'0 0.0
2018-Feb-14 12:30N 29°33' W 090°42'0 0.0
2018-Feb-14 11:59N 29°33' W 090°42'0 0.0
2018-Feb-14 11:30N 29°33' W 090°42'0 0.0
2018-Feb-14 11:00N 29°33' W 090°42'0 0.0
2018-Feb-14 10:30N 29°33' W 090°42'0 0.0
2018-Feb-14 10:00N 29°33' W 090°42'0 0.0
2018-Feb-14 09:30N 29°33' W 090°42'0 0.0
2018-Feb-14 08:55N 29°33' W 090°42'0 0.0
2018-Feb-14 08:30N 29°33' W 090°42'0 0.0
2018-Feb-14 08:00N 29°33' W 090°42'0 0.0
2018-Feb-14 07:30N 29°33' W 090°42'0 0.0
2018-Feb-14 07:00N 29°33' W 090°42'0 0.0
2018-Feb-14 06:30N 29°33' W 090°42'0 0.0
2018-Feb-14 05:56N 29°33' W 090°42'0 0.0
2018-Feb-14 05:31N 29°33' W 090°42'0 0.0
2018-Feb-14 05:00N 29°33' W 090°42'0 0.0
2018-Feb-14 04:30N 29°33' W 090°42'0 0.0
2018-Feb-14 04:00N 29°33' W 090°42'0 0.0
2018-Feb-14 03:30N 29°33' W 090°42'0 0.0
2018-Feb-14 03:00N 29°33' W 090°42'0 0.0
2018-Feb-14 02:30N 29°33' W 090°42'0 0.0
2018-Feb-14 02:00N 29°33' W 090°42'0 0.0
2018-Feb-14 01:27N 29°33' W 090°42'0 0.0
2018-Feb-14 01:00N 29°33' W 090°42'0 0.0
2018-Feb-14 00:30N 29°33' W 090°42'0 0.0
2018-Feb-13 23:57N 29°33' W 090°42'0 0.0
2018-Feb-13 23:30N 29°33' W 090°42'0 0.0
2018-Feb-13 22:59N 29°33' W 090°42'0 0.0
2018-Feb-13 22:30N 29°33' W 090°42'0 0.0
2018-Feb-13 22:00N 29°33' W 090°42'0 0.0
2018-Feb-13 21:31N 29°33' W 090°42'0 0.0
2018-Feb-13 21:00N 29°33' W 090°42'0 0.0
2018-Feb-13 20:30N 29°33' W 090°42'0 0.0
2018-Feb-13 19:59N 29°33' W 090°42'0 0.0
2018-Feb-13 19:30N 29°33' W 090°42'0 0.0
2018-Feb-13 18:58N 29°33' W 090°42'0 0.0
2018-Feb-13 18:30N 29°33' W 090°42'0 0.0
2018-Feb-13 17:59N 29°33' W 090°42'0 0.0
2018-Feb-13 17:28N 29°33' W 090°42'0 0.0
2018-Feb-13 16:59N 29°33' W 090°42'0 0.0
2018-Feb-13 16:30N 29°33' W 090°42'0 0.0
2018-Feb-13 16:01N 29°33' W 090°42'0 0.0
2018-Feb-13 15:29N 29°33' W 090°42'0 0.0
2018-Feb-13 15:00N 29°33' W 090°42'0 0.0
2018-Feb-13 14:29N 29°33' W 090°42'0 0.0
2018-Feb-13 14:01N 29°33' W 090°42'0 0.0
2018-Feb-13 13:25N 29°33' W 090°42'0 0.0
2018-Feb-13 13:00N 29°33' W 090°42'0 0.0
2018-Feb-13 12:24N 29°33' W 090°42'0 0.0
2018-Feb-13 11:59N 29°33' W 090°42'0 0.0
2018-Feb-13 11:30N 29°33' W 090°42'0 0.0
2018-Feb-13 11:00N 29°33' W 090°42'0 0.0
2018-Feb-13 10:30N 29°33' W 090°42'0 0.0
2018-Feb-13 10:00N 29°33' W 090°42'0 0.0
2018-Feb-13 09:30N 29°33' W 090°42'0 0.0
2018-Feb-13 09:00N 29°33' W 090°42'0 0.0
2018-Feb-13 08:30N 29°33' W 090°42'0 0.0
2018-Feb-13 08:00N 29°33' W 090°42'0 0.0
2018-Feb-13 07:29N 29°33' W 090°42'0 0.0
2018-Feb-13 07:00N 29°33' W 090°42'0 0.0
2018-Feb-13 06:30N 29°33' W 090°42'0 0.0
2018-Feb-13 06:00N 29°33' W 090°42'0 0.0
2018-Feb-13 05:30N 29°33' W 090°42'0 0.0
2018-Feb-13 04:59N 29°33' W 090°42'0 0.0
2018-Feb-13 04:30N 29°33' W 090°42'0 0.0
2018-Feb-13 04:00N 29°33' W 090°42'0 0.0
2018-Feb-13 03:30N 29°33' W 090°42'0 0.0
2018-Feb-13 02:59N 29°33' W 090°42'0 0.0
2018-Feb-13 02:30N 29°33' W 090°42'0 0.0
2018-Feb-13 02:00N 29°33' W 090°42'0 0.0
2018-Feb-13 01:27N 29°33' W 090°42'0 0.0
2018-Feb-13 01:00N 29°33' W 090°42'0 0.0
2018-Feb-13 00:28N 29°33' W 090°42'0 0.0
2018-Feb-12 23:59N 29°33' W 090°42'0 0.0
2018-Feb-12 23:28N 29°33' W 090°42'0 0.0
2018-Feb-12 23:01N 29°33' W 090°42'0 0.0
2018-Feb-12 22:30N 29°33' W 090°42'0 0.0
2018-Feb-12 22:00N 29°33' W 090°42'0 0.0
2018-Feb-12 21:30N 29°33' W 090°42'0 0.0
2018-Feb-12 20:59N 29°33' W 090°42'0 0.0
2018-Feb-12 20:26N 29°33' W 090°42'0 0.0
2018-Feb-12 20:00N 29°33' W 090°42'0 0.0
2018-Feb-12 19:30N 29°33' W 090°42'0 0.0
2018-Feb-12 19:00N 29°33' W 090°42'0 0.0
2018-Feb-12 18:26N 29°33' W 090°42'0 0.0
2018-Feb-12 18:00N 29°33' W 090°42'0 0.0
2018-Feb-12 17:30N 29°33' W 090°42'0 0.0
2018-Feb-12 16:57N 29°33' W 090°42'1 1.1
2018-Feb-12 16:30N 29°32' W 090°42'3 5.1
2018-Feb-12 16:00N 29°30' W 090°43'2 4.9
2018-Feb-12 15:30N 29°27' W 090°43'2 4.5
2018-Feb-12 15:00N 29°25' W 090°43'2 4.6
2018-Feb-12 14:30N 29°23' W 090°44'  

Dump ship's entire track history